Time;durP1;ratioP1;P1;durP2;ratioP2;P2;SDS_P1;SDS_P2;PMS_P1;PMS_P2;Temp;Humidity;BMP_temperature;BMP_pressure;BME280_temperature;BME280_humidity;BME280_pressure;Samples;Min_cycle;Max_cycle;Signal;HPM_P1;HPM_P2
2022/08/24 00:00:28;;;;;;;;;;;14.00;99.90;;;;;;5052400;28;20373;-75
2022/08/24 00:02:54;;;;;;;;;;;14.00;99.90;;;;;;5052382;28;19909;-75
2022/08/24 00:05:20;;;;;;;;;;;13.90;99.90;;;;;;5050709;28;19916;-75
2022/08/24 00:07:46;;;;;;;;;;;13.80;99.90;;;;;;5050695;28;19908;-75
2022/08/24 00:10:12;;;;;;;;;;;13.70;99.90;;;;;;5051097;28;19960;-75
2022/08/24 00:12:38;;;;;;;;;;;13.70;99.90;;;;;;5052106;28;20370;-75
2022/08/24 00:15:04;;;;;;;;;;;13.80;99.90;;;;;;5052065;28;19915;-76
2022/08/24 00:17:30;;;;;;;;;;;13.70;99.90;;;;;;5051029;28;19909;-75
2022/08/24 00:19:55;;;;;;;;;;;13.50;99.90;;;;;;5052029;28;19970;-75
2022/08/24 00:22:21;;;;;;;;;;;13.50;99.90;;;;;;5052434;28;19916;-75
2022/08/24 00:24:46;;;;;;;;;;;13.50;99.90;;;;;;5051876;28;19908;-75
2022/08/24 00:27:12;;;;;;;;;;;13.40;99.90;;;;;;5049969;28;19954;-75
2022/08/24 00:29:38;;;;;;;;;;;13.30;99.90;;;;;;5050619;28;19953;-75
2022/08/24 00:32:03;;;;;;;;;;;13.40;99.90;;;;;;5051947;28;19915;-75
2022/08/24 00:34:30;;;;;;;;;;;13.60;99.90;;;;;;5051639;28;19909;-75
2022/08/24 00:36:56;;;;;;;;;;;13.60;99.90;;;;;;5051824;28;20389;-75
2022/08/24 00:39:22;;;;;;;;;;;13.60;99.90;;;;;;5051093;28;19916;-75
2022/08/24 00:41:49;;;;;;;;;;;13.50;99.90;;;;;;5051729;28;20396;-75
2022/08/24 00:44:15;;;;;;;;;;;13.30;99.90;;;;;;5050332;28;20388;-75
2022/08/24 00:46:42;;;;;;;;;;;13.30;99.90;;;;;;5051764;28;19913;-75
2022/08/24 00:49:26;;;;;;;;;;;13.40;99.90;;;;;;5051570;28;20382;-75
2022/08/24 00:51:55;;;;;;;;;;;13.40;99.90;;;;;;5051478;28;19912;-75
2022/08/24 00:54:21;;;;;;;;;;;13.40;99.90;;;;;;5051480;28;19909;-75
2022/08/24 00:56:49;;;;;;;;;;;13.40;99.90;;;;;;5048408;28;19909;-75
2022/08/24 00:59:17;;;;;;;;;;;13.50;99.90;;;;;;5055955;28;19915;-75
2022/08/24 01:01:43;;;;;;;;;;;13.50;99.90;;;;;;5051458;28;20435;-75
2022/08/24 01:04:11;;;;;;;;;;;13.50;99.90;;;;;;5050851;28;19913;-75
2022/08/24 01:06:37;;;;;;;;;;;13.40;99.90;;;;;;5051306;28;19909;-75
2022/08/24 01:09:02;;;;;;;;;;;13.30;99.90;;;;;;5051155;28;19924;-75
2022/08/24 01:11:29;;;;;;;;;;;13.30;99.90;;;;;;5051130;28;20002;-75
2022/08/24 01:13:55;;;;;;;;;;;13.20;99.90;;;;;;5051269;28;19908;-75
2022/08/24 01:19:11;;;;;;;;;;;12.90;99.90;;;;;;5045202;28;19915;-75
2022/08/24 01:21:43;;;;;;;;;;;12.80;99.90;;;;;;5050784;28;19916;-76
2022/08/24 01:24:10;;;;;;;;;;;12.80;99.90;;;;;;5049641;28;19912;-75
2022/08/24 01:26:38;;;;;;;;;;;12.90;99.90;;;;;;5052529;28;20474;-75
2022/08/24 01:29:06;;;;;;;;;;;13.00;99.90;;;;;;5050976;28;20373;-76
2022/08/24 01:31:32;;;;;;;;;;;13.00;99.90;;;;;;5051060;28;20266;-75
2022/08/24 01:33:57;;;;;;;;;;;12.70;99.90;;;;;;5050518;28;19916;-75
2022/08/24 01:36:25;;;;;;;;;;;12.70;99.90;;;;;;5051176;28;19908;-75
2022/08/24 01:38:52;;;;;;;;;;;12.70;99.90;;;;;;5051227;28;19908;-75
2022/08/24 01:41:17;;;;;;;;;;;12.70;99.90;;;;;;5050792;28;19913;-75
2022/08/24 01:43:43;;;;;;;;;;;12.90;99.90;;;;;;5050652;28;19913;-75
2022/08/24 01:46:09;;;;;;;;;;;13.00;99.90;;;;;;5050991;28;20329;-74
2022/08/24 01:48:35;;;;;;;;;;;13.00;99.90;;;;;;5050987;28;19999;-75
2022/08/24 01:51:00;;;;;;;;;;;13.00;99.90;;;;;;5049778;28;20016;-75
2022/08/24 01:53:26;;;;;;;;;;;13.00;99.90;;;;;;5050501;28;19917;-75
2022/08/24 01:55:51;;;;;;;;;;;12.90;99.90;;;;;;5048968;28;20317;-76
2022/08/24 01:58:17;;;;;;;;;;;12.90;99.90;;;;;;5056470;28;20366;-76
2022/08/24 02:00:43;;;;;;;;;;;12.90;99.90;;;;;;5050885;28;19932;-75
2022/08/24 02:03:08;;;;;;;;;;;12.90;99.90;;;;;;5050651;28;19916;-76
2022/08/24 02:05:35;;;;;;;;;;;12.80;99.90;;;;;;5050957;28;19909;-76
2022/08/24 02:08:01;;;;;;;;;;;12.70;99.90;;;;;;5051006;28;19908;-76
2022/08/24 02:10:27;;;;;;;;;;;12.50;99.90;;;;;;5048188;28;19921;-75
2022/08/24 02:12:58;;;;;;;;;;;12.50;99.90;;;;;;5050532;28;19909;-75
2022/08/24 02:15:31;;;;;;;;;;;12.40;99.90;;;;;;5050677;28;19962;-75
2022/08/24 02:17:57;;;;;;;;;;;12.30;99.90;;;;;;5044253;28;19920;-76
2022/08/24 02:20:23;;;;;;;;;;;12.30;99.90;;;;;;5049281;28;20381;-76
2022/08/24 02:22:49;;;;;;;;;;;12.30;99.90;;;;;;5049312;28;19909;-76
2022/08/24 02:25:15;;;;;;;;;;;12.30;99.90;;;;;;5050286;28;19915;-76
2022/08/24 02:27:41;;;;;;;;;;;12.20;99.90;;;;;;5059302;28;19991;-75
2022/08/24 02:30:07;;;;;;;;;;;12.30;99.90;;;;;;5051281;28;20075;-76
2022/08/24 02:32:32;;;;;;;;;;;12.20;99.90;;;;;;5049184;28;19909;-76
2022/08/24 02:34:58;;;;;;;;;;;12.20;99.90;;;;;;5053077;28;19909;-76
2022/08/24 02:37:23;;;;;;;;;;;12.20;99.90;;;;;;5053098;28;19908;-75
2022/08/24 02:39:49;;;;;;;;;;;12.20;99.90;;;;;;5054101;28;19913;-75
2022/08/24 02:42:14;;;;;;;;;;;12.20;99.90;;;;;;5053919;28;19913;-76
2022/08/24 02:44:40;;;;;;;;;;;12.10;99.90;;;;;;5052494;28;19967;-76
2022/08/24 02:47:06;;;;;;;;;;;12.10;99.90;;;;;;5053862;28;19919;-75
2022/08/24 02:49:31;;;;;;;;;;;12.00;99.90;;;;;;5052604;28;20003;-75
2022/08/24 02:51:57;;;;;;;;;;;11.90;99.90;;;;;;5053918;28;20358;-75
2022/08/24 02:54:23;;;;;;;;;;;12.00;99.90;;;;;;5053595;28;19908;-75
2022/08/24 02:56:48;;;;;;;;;;;12.00;99.90;;;;;;5048897;28;20011;-75
2022/08/24 02:59:15;;;;;;;;;;;11.90;99.90;;;;;;5053533;28;19913;-76
2022/08/24 03:01:40;;;;;;;;;;;11.90;99.90;;;;;;5053488;28;19916;-76
2022/08/24 03:04:06;;;;;;;;;;;11.90;99.90;;;;;;5052122;28;19913;-76
2022/08/24 03:06:32;;;;;;;;;;;11.80;99.90;;;;;;5053507;28;19975;-75
2022/08/24 03:08:57;;;;;;;;;;;11.80;99.90;;;;;;5053318;28;19917;-76
2022/08/24 03:11:23;;;;;;;;;;;11.70;99.90;;;;;;5051939;28;19956;-76
2022/08/24 03:13:49;;;;;;;;;;;11.60;99.90;;;;;;5053238;28;19913;-76
2022/08/24 03:16:15;;;;;;;;;;;11.60;99.90;;;;;;5053313;28;19913;-76
2022/08/24 03:18:41;;;;;;;;;;;11.70;99.90;;;;;;5053484;28;19916;-76
2022/08/24 03:21:07;;;;;;;;;;;11.70;99.90;;;;;;5053078;28;19913;-75
2022/08/24 03:23:33;;;;;;;;;;;11.70;99.90;;;;;;5052896;28;19916;-75
2022/08/24 03:26:00;;;;;;;;;;;11.70;99.90;;;;;;5050792;28;19913;-75
2022/08/24 03:28:26;;;;;;;;;;;11.60;99.90;;;;;;5052737;28;19909;-75
2022/08/24 03:30:52;;;;;;;;;;;11.50;99.90;;;;;;5052879;28;19919;-75
2022/08/24 03:33:17;;;;;;;;;;;11.40;99.90;;;;;;5051281;28;20392;-75
2022/08/24 03:35:43;;;;;;;;;;;11.40;99.90;;;;;;5038921;28;20270;-75
2022/08/24 03:38:08;;;;;;;;;;;11.40;99.90;;;;;;5052765;28;19909;-75
2022/08/24 03:40:34;;;;;;;;;;;11.50;99.90;;;;;;5052693;28;19913;-75
2022/08/24 03:43:00;;;;;;;;;;;11.50;99.90;;;;;;5052757;28;19908;-75
2022/08/24 03:45:26;;;;;;;;;;;11.60;99.90;;;;;;5052272;28;19981;-76
2022/08/24 03:47:52;;;;;;;;;;;11.60;99.90;;;;;;5052894;28;20392;-75
2022/08/24 03:50:19;;;;;;;;;;;11.70;99.90;;;;;;5052653;28;19912;-76
2022/08/24 03:52:44;;;;;;;;;;;11.70;99.90;;;;;;5052816;28;19932;-76
2022/08/24 03:55:10;;;;;;;;;;;11.60;99.90;;;;;;5052297;28;20275;-76
2022/08/24 03:57:36;;;;;;;;;;;11.40;99.90;;;;;;5055756;28;19916;-76
2022/08/24 04:00:03;;;;;;;;;;;11.40;99.90;;;;;;5054775;28;19908;-76
2022/08/24 04:02:29;;;;;;;;;;;11.40;99.90;;;;;;5052561;28;19915;-76
2022/08/24 04:04:54;;;;;;;;;;;11.40;99.90;;;;;;5050161;28;20015;-76
2022/08/24 04:07:20;;;;;;;;;;;11.40;99.90;;;;;;5057353;28;19915;-76
2022/08/24 04:09:45;;;;;;;;;;;11.30;99.90;;;;;;5054065;28;20063;-76
2022/08/24 04:12:11;;;;;;;;;;;11.30;99.90;;;;;;5053602;28;19909;-76
2022/08/24 04:14:37;;;;;;;;;;;11.30;99.90;;;;;;5053551;28;19984;-76
2022/08/24 04:17:03;;;;;;;;;;;11.30;99.90;;;;;;5054047;28;19908;-76
2022/08/24 04:19:29;;;;;;;;;;;11.20;99.90;;;;;;5052458;28;19913;-75
2022/08/24 04:21:57;;;;;;;;;;;11.30;99.90;;;;;;5052769;28;19958;-75
2022/08/24 04:24:23;;;;;;;;;;;11.30;99.90;;;;;;5052614;28;19958;-75
2022/08/24 04:26:49;;;;;;;;;;;11.30;99.90;;;;;;5051343;28;19909;-75
2022/08/24 04:29:15;;;;;;;;;;;11.30;99.90;;;;;;5052634;28;19909;-75
2022/08/24 04:31:42;;;;;;;;;;;11.20;99.90;;;;;;5051900;28;19912;-76
2022/08/24 04:34:08;;;;;;;;;;;11.20;99.90;;;;;;5051568;28;19909;-76
2022/08/24 04:36:34;;;;;;;;;;;11.10;99.90;;;;;;5051166;28;19908;-76
2022/08/24 04:39:00;;;;;;;;;;;11.10;99.90;;;;;;5052114;28;19917;-75
2022/08/24 04:41:25;;;;;;;;;;;11.20;99.90;;;;;;5051962;28;19909;-75
2022/08/24 04:43:51;;;;;;;;;;;11.30;99.90;;;;;;5051516;28;19909;-76
2022/08/24 04:46:18;;;;;;;;;;;11.30;99.90;;;;;;5052391;28;19923;-75
2022/08/24 04:48:44;;;;;;;;;;;11.30;99.90;;;;;;5051675;28;19908;-76
2022/08/24 04:51:10;;;;;;;;;;;11.30;99.90;;;;;;5051941;28;19913;-76
2022/08/24 04:53:37;;;;;;;;;;;11.30;99.90;;;;;;5051340;28;20388;-75
2022/08/24 04:56:03;;;;;;;;;;;11.40;99.90;;;;;;5044668;28;20385;-75
2022/08/24 04:58:29;;;;;;;;;;;11.60;99.90;;;;;;5051208;28;19909;-75
2022/08/24 05:00:55;;;;;;;;;;;11.70;99.90;;;;;;5052575;28;19908;-75
2022/08/24 05:03:20;;;;;;;;;;;11.70;99.90;;;;;;5051256;28;19909;-75
2022/08/24 05:05:47;;;;;;;;;;;11.70;99.90;;;;;;5051299;28;20293;-75
2022/08/24 05:08:13;;;;;;;;;;;11.70;99.90;;;;;;5050856;28;20391;-75
2022/08/24 05:10:40;;;;;;;;;;;11.80;99.90;;;;;;5049842;28;20039;-75
2022/08/24 05:13:06;;;;;;;;;;;11.90;99.90;;;;;;5050878;28;19908;-75
2022/08/24 05:15:32;;;;;;;;;;;12.00;99.90;;;;;;5051018;28;19908;-75
2022/08/24 05:17:58;;;;;;;;;;;12.10;99.90;;;;;;5051153;28;19909;-75
2022/08/24 05:20:23;;;;;;;;;;;12.20;99.90;;;;;;5050781;28;19908;-75
2022/08/24 05:22:50;;;;;;;;;;;12.40;99.90;;;;;;5050907;28;19913;-75
2022/08/24 05:25:16;;;;;;;;;;;12.50;99.90;;;;;;5050957;28;19913;-75
2022/08/24 05:27:41;;;;;;;;;;;12.50;99.90;;;;;;5051064;28;19979;-75
2022/08/24 05:30:07;;;;;;;;;;;12.60;99.90;;;;;;5055038;28;19912;-76
2022/08/24 05:32:33;;;;;;;;;;;12.70;99.90;;;;;;5050960;28;19916;-75
2022/08/24 05:34:59;;;;;;;;;;;12.80;99.90;;;;;;5050806;28;19909;-75
2022/08/24 05:37:25;;;;;;;;;;;12.90;99.90;;;;;;5050898;28;19996;-75
2022/08/24 05:39:51;;;;;;;;;;;13.00;99.90;;;;;;5051078;28;19955;-75
2022/08/24 05:42:16;;;;;;;;;;;13.10;99.90;;;;;;5050939;28;19920;-75
2022/08/24 05:44:42;;;;;;;;;;;13.20;99.90;;;;;;5049968;28;20273;-75
2022/08/24 05:47:07;;;;;;;;;;;13.40;99.90;;;;;;5050917;28;19954;-75
2022/08/24 05:49:33;;;;;;;;;;;13.50;99.90;;;;;;5051192;28;20011;-75
2022/08/24 05:51:58;;;;;;;;;;;13.60;99.90;;;;;;5051022;28;20501;-75
2022/08/24 05:54:25;;;;;;;;;;;13.60;99.90;;;;;;5050802;28;19909;-75
2022/08/24 05:56:51;;;;;;;;;;;13.70;99.90;;;;;;5047165;28;19916;-75
2022/08/24 05:59:18;;;;;;;;;;;13.80;99.90;;;;;;5050518;28;20309;-75
2022/08/24 06:01:44;;;;;;;;;;;13.90;99.90;;;;;;5050520;28;19909;-75
2022/08/24 06:04:09;;;;;;;;;;;14.00;99.90;;;;;;5050307;28;19916;-75
2022/08/24 06:06:35;;;;;;;;;;;14.20;99.90;;;;;;5050541;28;20350;-75
2022/08/24 06:09:00;;;;;;;;;;;14.20;99.90;;;;;;5051957;28;19959;-75
2022/08/24 06:11:36;;;;;;;;;;;14.30;99.90;;;;;;5050916;28;19951;-75
2022/08/24 06:14:04;;;;;;;;;;;14.30;99.90;;;;;;5054202;28;19934;-75
2022/08/24 06:16:30;;;;;;;;;;;14.40;99.90;;;;;;5054342;28;19909;-75
2022/08/24 06:18:55;;;;;;;;;;;14.50;99.90;;;;;;5054554;28;20281;-75
2022/08/24 06:21:23;;;;;;;;;;;14.80;99.90;;;;;;5053171;28;19912;-75
2022/08/24 06:23:50;;;;;;;;;;;15.00;99.90;;;;;;5042046;28;19955;-75
2022/08/24 06:29:00;;;;;;;;;;;15.30;99.90;;;;;;5038955;28;20357;-75
2022/08/24 06:31:26;;;;;;;;;;;15.30;99.90;;;;;;5038390;28;19959;-75
2022/08/24 06:33:52;;;;;;;;;;;15.30;99.90;;;;;;5033728;28;19913;-75
2022/08/24 06:36:17;;;;;;;;;;;15.50;99.90;;;;;;5036520;28;20321;-75
2022/08/24 06:38:43;;;;;;;;;;;15.60;99.90;;;;;;5040627;28;19909;-75
2022/08/24 06:41:09;;;;;;;;;;;15.70;99.90;;;;;;5044862;28;19915;-75
2022/08/24 06:43:35;;;;;;;;;;;15.90;99.90;;;;;;5053921;28;20286;-74
2022/08/24 06:46:01;;;;;;;;;;;16.10;99.90;;;;;;5053724;28;19912;-74
2022/08/24 06:48:27;;;;;;;;;;;16.30;99.90;;;;;;5053737;28;20457;-74
2022/08/24 06:50:53;;;;;;;;;;;16.40;99.90;;;;;;5053562;28;19917;-73
2022/08/24 06:53:18;;;;;;;;;;;16.50;99.90;;;;;;5047236;28;19908;-74
2022/08/24 06:55:55;;;;;;;;;;;16.70;99.90;;;;;;5057118;28;19910;-74
2022/08/24 06:58:21;;;;;;;;;;;16.80;99.90;;;;;;5044077;28;19909;-74
2022/08/24 07:00:46;;;;;;;;;;;16.90;99.90;;;;;;5053279;28;19962;-74
2022/08/24 07:03:13;;;;;;;;;;;17.00;99.90;;;;;;5051994;28;20316;-74
2022/08/24 07:05:38;;;;;;;;;;;17.20;99.90;;;;;;5053103;28;19935;-74
2022/08/24 07:08:04;;;;;;;;;;;17.30;99.90;;;;;;5055446;28;19909;-74
2022/08/24 07:10:30;;;;;;;;;;;17.40;99.90;;;;;;5050868;28;19917;-74
2022/08/24 07:12:56;;;;;;;;;;;17.70;99.90;;;;;;5056060;28;19909;-74
2022/08/24 07:15:22;;;;;;;;;;;18.00;99.90;;;;;;5052893;28;19912;-74
2022/08/24 07:17:47;;;;;;;;;;;18.30;99.90;;;;;;5053124;28;20286;-74
2022/08/24 07:20:13;;;;;;;;;;;18.50;99.90;;;;;;5052535;28;19909;-75
2022/08/24 07:22:38;;;;;;;;;;;19.20;99.90;;;;;;5053064;28;19952;-75
2022/08/24 07:25:05;;;;;;;;;;;20.30;99.90;;;;;;5052573;28;19908;-75
2022/08/24 07:27:31;;;;;;;;;;;21.20;99.90;;;;;;5039218;28;20413;-75
2022/08/24 07:29:57;;;;;;;;;;;21.90;99.60;;;;;;5056201;28;19912;-75
2022/08/24 07:32:22;;;;;;;;;;;22.60;96.20;;;;;;5052353;28;19909;-75
2022/08/24 07:34:48;;;;;;;;;;;23.50;93.50;;;;;;5053153;28;19908;-75
2022/08/24 07:37:13;;;;;;;;;;;24.20;90.10;;;;;;5047801;28;19908;-75
2022/08/24 07:39:39;;;;;;;;;;;24.70;84.90;;;;;;5052611;28;19909;-75
2022/08/24 07:42:05;;;;;;;;;;;25.10;83.30;;;;;;5052811;28;19908;-75
2022/08/24 07:44:30;;;;;;;;;;;25.30;83.70;;;;;;5052517;28;20231;-75
2022/08/24 07:46:56;;;;;;;;;;;26.10;75.90;;;;;;5052678;28;19920;-74
2022/08/24 07:49:21;;;;;;;;;;;26.50;70.10;;;;;;5052599;28;19912;-75
2022/08/24 07:51:47;;;;;;;;;;;26.40;70.00;;;;;;5052247;28;20003;-75
2022/08/24 07:54:13;;;;;;;;;;;26.70;72.30;;;;;;5052206;28;20305;-75
2022/08/24 07:56:40;;;;;;;;;;;26.80;70.50;;;;;;5052596;28;19909;-75
2022/08/24 07:59:05;;;;;;;;;;;26.90;69.30;;;;;;5052282;28;19934;-75
2022/08/24 08:01:31;;;;;;;;;;;27.30;67.60;;;;;;5050959;28;19909;-75
2022/08/24 08:03:57;;;;;;;;;;;27.90;68.00;;;;;;5051262;28;20424;-76
2022/08/24 08:06:22;;;;;;;;;;;28.60;66.30;;;;;;5051996;28;19913;-75
2022/08/24 08:08:48;;;;;;;;;;;28.60;64.00;;;;;;5051834;28;20015;-75
2022/08/24 08:11:33;;;;;;;;;;;28.90;63.00;;;;;;5068856;28;19913;-75
2022/08/24 08:13:59;;;;;;;;;;;29.10;62.60;;;;;;5068037;28;19913;-75
2022/08/24 08:16:25;;;;;;;;;;;28.60;61.50;;;;;;5067516;28;19966;-74
2022/08/24 08:18:51;;;;;;;;;;;28.80;63.60;;;;;;5060664;28;20370;-76
2022/08/24 08:24:17;;;;;;;;;;;30.00;58.50;;;;;;5062032;28;20278;-76
2022/08/24 08:26:43;;;;;;;;;;;30.80;58.90;;;;;;5064319;28;20366;-76
2022/08/24 08:29:09;;;;;;;;;;;30.60;56.90;;;;;;5074418;28;19955;-74
2022/08/24 08:31:36;;;;;;;;;;;30.80;57.00;;;;;;5070966;28;19912;-76
2022/08/24 08:34:02;;;;;;;;;;;30.10;55.50;;;;;;5067860;28;20011;-75
2022/08/24 08:36:27;;;;;;;;;;;30.10;57.10;;;;;;5067623;28;20361;-75
2022/08/24 08:38:53;;;;;;;;;;;30.50;56.80;;;;;;5067719;28;19909;-76
2022/08/24 08:41:37;;;;;;;;;;;30.60;57.50;;;;;;5067648;28;19908;-76
2022/08/24 08:44:05;;;;;;;;;;;31.80;55.60;;;;;;5067700;28;19952;-76
2022/08/24 08:46:49;;;;;;;;;;;31.20;55.20;;;;;;5066385;28;20003;-75
2022/08/24 08:49:23;;;;;;;;;;;30.80;52.30;;;;;;5066805;28;19958;-75
2022/08/24 08:51:49;;;;;;;;;;;30.20;54.10;;;;;;5067470;28;19955;-76
2022/08/24 08:54:33;;;;;;;;;;;30.30;53.10;;;;;;5067345;28;20289;-76
2022/08/24 08:57:08;;;;;;;;;;;30.40;54.10;;;;;;5062457;28;19992;-76
2022/08/24 08:59:43;;;;;;;;;;;30.80;53.40;;;;;;5063318;28;19908;-75
2022/08/24 09:02:29;;;;;;;;;;;30.50;52.10;;;;;;5065597;28;19909;-75
2022/08/24 09:05:15;;;;;;;;;;;31.00;51.00;;;;;;5067289;28;20381;-75
2022/08/24 09:07:40;;;;;;;;;;;30.80;50.70;;;;;;5066228;28;19995;-76
2022/08/24 09:10:16;;;;;;;;;;;31.70;51.40;;;;;;5075750;28;20345;-74
2022/08/24 09:12:42;;;;;;;;;;;31.50;49.30;;;;;;5086334;28;20357;-75
2022/08/24 09:15:13;;;;;;;;;;;31.40;49.30;;;;;;5087402;28;20361;-76
2022/08/24 09:17:41;;;;;;;;;;;31.70;48.70;;;;;;5083902;28;20015;-75
2022/08/24 09:20:13;;;;;;;;;;;31.80;48.10;;;;;;5083541;28;20062;-75
2022/08/24 09:22:46;;;;;;;;;;;31.60;48.20;;;;;;5075319;28;19908;-75
2022/08/24 09:25:25;;;;;;;;;;;31.20;47.80;;;;;;5074131;28;20512;-75
2022/08/24 09:27:51;;;;;;;;;;;31.20;50.50;;;;;;5067842;28;19954;-75
2022/08/24 09:30:19;;;;;;;;;;;31.90;50.10;;;;;;5073332;28;19919;-76
2022/08/24 09:33:07;;;;;;;;;;;31.80;45.10;;;;;;5073374;28;19912;-76
2022/08/24 09:35:51;;;;;;;;;;;31.70;48.70;;;;;;5073564;28;19915;-75
2022/08/24 09:38:35;;;;;;;;;;;32.20;45.50;;;;;;5073545;28;20368;-75
2022/08/24 09:41:30;;;;;;;;;;;32.40;47.30;;;;;;5067949;28;19955;-75
2022/08/24 09:44:08;;;;;;;;;;;32.90;45.10;;;;;;5002226;28;20409;-76
2022/08/24 09:46:36;;;;;;;;;;;32.30;43.10;;;;;;5072853;28;19909;-75
2022/08/24 09:49:02;;;;;;;;;;;32.40;43.90;;;;;;5073217;28;19908;-76
2022/08/24 09:51:47;;;;;;;;;;;32.40;45.90;;;;;;5072781;28;20416;-76
2022/08/24 09:54:19;;;;;;;;;;;32.80;44.80;;;;;;5071804;28;20348;-75
2022/08/24 09:57:16;;;;;;;;;;;33.10;44.60;;;;;;5073222;28;19916;-76
2022/08/24 09:59:51;;;;;;;;;;;33.10;43.80;;;;;;5068370;28;19908;-75
2022/08/24 10:02:26;;;;;;;;;;;33.10;44.70;;;;;;5068718;28;20078;-76
2022/08/24 10:05:10;;;;;;;;;;;34.00;44.50;;;;;;5072676;28;19930;-75
2022/08/24 10:07:41;;;;;;;;;;;33.40;43.00;;;;;;5072712;28;19938;-76
2022/08/24 10:10:07;;;;;;;;;;;33.90;41.60;;;;;;5071537;28;19917;-76
2022/08/24 10:12:45;;;;;;;;;;;34.30;42.70;;;;;;5073211;28;19954;-76
2022/08/24 10:15:17;;;;;;;;;;;35.00;42.10;;;;;;5072758;28;19912;-76
2022/08/24 10:17:52;;;;;;;;;;;35.80;39.70;;;;;;5061972;28;19948;-76
2022/08/24 10:20:17;;;;;;;;;;;36.40;39.20;;;;;;5069159;28;19915;-75
2022/08/24 10:22:46;;;;;;;;;;;35.90;39.10;;;;;;5072444;28;20294;-75
2022/08/24 10:25:15;;;;;;;;;;;35.30;39.90;;;;;;5072553;28;20337;-75
2022/08/24 10:27:40;;;;;;;;;;;35.10;38.90;;;;;;5072327;28;19908;-75
2022/08/24 10:30:24;;;;;;;;;;;34.80;39.40;;;;;;5072338;28;19920;-76
2022/08/24 10:32:49;;;;;;;;;;;34.90;42.40;;;;;;5071599;28;19909;-76
2022/08/24 10:35:29;;;;;;;;;;;36.50;39.30;;;;;;5072546;28;19966;-75
2022/08/24 10:41:03;;;;;;;;;;;35.90;39.80;;;;;;5068799;28;20027;-76
2022/08/24 10:43:38;;;;;;;;;;;35.40;40.70;;;;;;5071880;28;19918;-77
2022/08/24 10:46:22;;;;;;;;;;;36.10;39.40;;;;;;5072036;28;20003;-75
2022/08/24 10:48:54;;;;;;;;;;;34.50;41.60;;;;;;5071971;28;19914;-78
2022/08/24 10:51:28;;;;;;;;;;;36.70;40.50;;;;;;5068974;28;19920;-75
2022/08/24 10:53:55;;;;;;;;;;;36.30;39.20;;;;;;5070648;28;19913;-76
2022/08/24 10:56:50;;;;;;;;;;;36.10;39.40;;;;;;5072059;28;19934;-76
2022/08/24 10:59:23;;;;;;;;;;;35.70;39.10;;;;;;5058525;28;19909;-75
2022/08/24 11:02:08;;;;;;;;;;;34.50;40.10;;;;;;5074661;28;20525;-75
2022/08/24 11:04:34;;;;;;;;;;;35.10;39.30;;;;;;5070503;28;19909;-75
2022/08/24 11:07:05;;;;;;;;;;;36.40;39.00;;;;;;5071781;28;19908;-75
2022/08/24 11:09:43;;;;;;;;;;;36.40;38.50;;;;;;5071405;28;19917;-78
2022/08/24 11:12:16;;;;;;;;;;;36.40;39.80;;;;;;5064452;28;19916;-76
2022/08/24 11:14:45;;;;;;;;;;;36.70;38.30;;;;;;5071121;28;19909;-75
2022/08/24 11:17:21;;;;;;;;;;;36.10;39.20;;;;;;5071605;28;19935;-79
2022/08/24 11:19:48;;;;;;;;;;;36.70;40.50;;;;;;5069977;28;19909;-78
2022/08/24 11:22:39;;;;;;;;;;;36.10;38.00;;;;;;5071007;28;20254;-75
2022/08/24 11:25:12;;;;;;;;;;;34.20;40.10;;;;;;5042743;28;19920;-79
2022/08/24 11:27:44;;;;;;;;;;;33.80;40.10;;;;;;5063941;28;19915;-78
2022/08/24 11:30:10;;;;;;;;;;;35.30;39.90;;;;;;5075003;28;19916;-76
2022/08/24 11:32:41;;;;;;;;;;;35.30;39.10;;;;;;5068932;28;20250;-77
2022/08/24 11:35:16;;;;;;;;;;;35.60;38.30;;;;;;5070942;28;19931;-75
2022/08/24 11:37:41;;;;;;;;;;;36.30;40.30;;;;;;5071328;28;19927;-78
2022/08/24 11:40:08;;;;;;;;;;;36.30;37.80;;;;;;5073210;28;19919;-75
2022/08/24 11:42:42;;;;;;;;;;;35.10;37.10;;;;;;5071032;28;19939;-78
2022/08/24 11:45:08;;;;;;;;;;;36.80;36.60;;;;;;5070873;28;19908;-76
2022/08/24 11:47:39;;;;;;;;;;;36.20;38.50;;;;;;5073792;28;19962;-79
2022/08/24 11:50:16;;;;;;;;;;;37.20;36.30;;;;;;5075236;28;19970;-75
2022/08/24 11:52:45;;;;;;;;;;;36.60;36.60;;;;;;5065287;28;20332;-76
2022/08/24 11:55:16;;;;;;;;;;;36.50;35.30;;;;;;5065431;28;19944;-75
2022/08/24 11:57:49;;;;;;;;;;;35.80;37.20;;;;;;5071817;28;19908;-79
2022/08/24 12:00:19;;;;;;;;;;;36.70;36.90;;;;;;5069455;28;19908;-75
2022/08/24 12:02:57;;;;;;;;;;;35.30;37.50;;;;;;5070243;28;19913;-75
2022/08/24 12:05:41;;;;;;;;;;;34.80;39.40;;;;;;5071382;28;19908;-75
2022/08/24 12:08:13;;;;;;;;;;;35.50;38.10;;;;;;5071412;28;19908;-75
2022/08/24 12:10:57;;;;;;;;;;;34.90;37.70;;;;;;5070241;28;19922;-77
2022/08/24 12:13:22;;;;;;;;;;;36.50;37.10;;;;;;5065976;28;19916;-77
2022/08/24 12:16:09;;;;;;;;;;;36.00;36.00;;;;;;5071017;28;19909;-75
2022/08/24 12:18:52;;;;;;;;;;;35.60;37.60;;;;;;5064229;28;19917;-75
2022/08/24 12:21:21;;;;;;;;;;;36.00;36.40;;;;;;5070342;28;20392;-75
2022/08/24 12:23:53;;;;;;;;;;;35.30;38.30;;;;;;5064378;28;19931;-75
2022/08/24 12:26:25;;;;;;;;;;;35.60;37.30;;;;;;5065666;28;19909;-80
2022/08/24 12:28:54;;;;;;;;;;;36.20;36.00;;;;;;5069734;28;19962;-77
2022/08/24 12:31:21;;;;;;;;;;;36.20;36.60;;;;;;5070846;28;19917;-75
2022/08/24 12:33:50;;;;;;;;;;;35.70;35.50;;;;;;5069269;28;19956;-78
2022/08/24 12:36:28;;;;;;;;;;;36.30;34.80;;;;;;5070661;28;19922;-75
2022/08/24 12:39:04;;;;;;;;;;;36.70;35.70;;;;;;5070879;28;19909;-75
2022/08/24 12:41:35;;;;;;;;;;;36.00;35.60;;;;;;5070466;28;19954;-76
2022/08/24 12:44:06;;;;;;;;;;;35.30;36.60;;;;;;5070494;28;19909;-75
2022/08/24 12:46:32;;;;;;;;;;;34.20;38.60;;;;;;5070715;28;19995;-75
2022/08/24 12:49:09;;;;;;;;;;;34.50;37.10;;;;;;5072528;28;20002;-76
2022/08/24 12:51:47;;;;;;;;;;;33.50;38.50;;;;;;5070488;28;20023;-75
2022/08/24 12:54:16;;;;;;;;;;;32.60;41.00;;;;;;5050679;28;20004;-74
2022/08/24 12:56:56;;;;;;;;;;;31.70;41.90;;;;;;5071279;28;19962;-80
2022/08/24 12:59:31;;;;;;;;;;;30.70;41.60;;;;;;5073528;28;19955;-75
2022/08/24 13:01:57;;;;;;;;;;;30.20;43.20;;;;;;5073950;28;20384;-75
2022/08/24 13:04:31;;;;;;;;;;;29.70;46.30;;;;;;5074043;28;19908;-75
2022/08/24 13:07:15;;;;;;;;;;;29.30;46.00;;;;;;5074758;28;19993;-75
2022/08/24 13:09:43;;;;;;;;;;;29.00;44.90;;;;;;5074390;28;19970;-75
2022/08/24 13:12:27;;;;;;;;;;;28.70;44.50;;;;;;5074572;28;19916;-74
2022/08/24 13:14:53;;;;;;;;;;;28.50;46.60;;;;;;5073296;28;19912;-74
2022/08/24 13:17:18;;;;;;;;;;;28.30;44.20;;;;;;5074489;28;19916;-75
2022/08/24 13:19:45;;;;;;;;;;;28.30;46.00;;;;;;5074137;28;19908;-75
2022/08/24 13:22:14;;;;;;;;;;;28.10;46.80;;;;;;5074701;28;19916;-74
2022/08/24 13:24:42;;;;;;;;;;;28.20;47.20;;;;;;5074156;28;19916;-74
2022/08/24 13:27:10;;;;;;;;;;;28.00;46.50;;;;;;5071931;28;19909;-77
2022/08/24 13:29:37;;;;;;;;;;;28.30;47.60;;;;;;5072302;28;20029;-74
2022/08/24 13:32:04;;;;;;;;;;;28.10;46.70;;;;;;5064503;28;19916;-80
2022/08/24 13:34:39;;;;;;;;;;;28.20;48.10;;;;;;5073392;28;19908;-74
2022/08/24 13:37:10;;;;;;;;;;;28.10;49.20;;;;;;5073563;28;19908;-78
2022/08/24 13:39:35;;;;;;;;;;;28.20;47.10;;;;;;5073343;28;19913;-74
2022/08/24 13:42:10;;;;;;;;;;;28.10;46.70;;;;;;5074117;28;19908;-74
2022/08/24 13:45:01;;;;;;;;;;;27.90;47.90;;;;;;5073668;28;19912;-75
2022/08/24 13:47:32;;;;;;;;;;;28.00;48.20;;;;;;5066270;28;20004;-74
2022/08/24 13:50:10;;;;;;;;;;;27.90;47.30;;;;;;5079099;28;20007;-74
2022/08/24 13:52:48;;;;;;;;;;;28.20;46.80;;;;;;5070910;28;19912;-74
2022/08/24 13:55:29;;;;;;;;;;;28.50;45.40;;;;;;5071933;28;19912;-74
2022/08/24 13:58:13;;;;;;;;;;;28.40;46.00;;;;;;5073184;28;19961;-79
2022/08/24 14:00:41;;;;;;;;;;;28.40;47.30;;;;;;5071346;28;19908;-74
2022/08/24 14:03:21;;;;;;;;;;;28.50;45.90;;;;;;5077238;28;19912;-80
2022/08/24 14:05:47;;;;;;;;;;;30.50;42.90;;;;;;5071019;28;19908;-76
2022/08/24 14:08:25;;;;;;;;;;;33.10;39.00;;;;;;5072888;28;20369;-75
2022/08/24 14:11:05;;;;;;;;;;;34.80;37.30;;;;;;5072944;28;19916;-78
2022/08/24 14:13:36;;;;;;;;;;;35.10;36.10;;;;;;5067142;28;20001;-75
2022/08/24 14:18:54;;;;;;;;;;;34.60;39.00;;;;;;5064147;28;19942;-75
2022/08/24 14:21:23;;;;;;;;;;;34.10;38.90;;;;;;5078647;28;20284;-75
2022/08/24 14:23:51;;;;;;;;;;;32.40;41.70;;;;;;5072571;28;19989;-74
2022/08/24 14:26:49;;;;;;;;;;;31.30;43.30;;;;;;5073156;28;20395;-75
2022/08/24 14:29:18;;;;;;;;;;;31.20;45.30;;;;;;5072531;28;19909;-74
2022/08/24 14:31:52;;;;;;;;;;;31.60;44.90;;;;;;5072408;28;20388;-75
2022/08/24 14:34:27;;;;;;;;;;;31.40;45.50;;;;;;5072402;28;20330;-78
2022/08/24 14:36:58;;;;;;;;;;;32.40;44.60;;;;;;5072277;28;20075;-75
2022/08/24 14:39:38;;;;;;;;;;;32.90;42.00;;;;;;5071999;28;20000;-75
2022/08/24 14:42:09;;;;;;;;;;;33.90;40.60;;;;;;5070831;28;19909;-75